Terminal Aerodrome Forecast
Issued by NWS Paducah, KY

Home | Current Version | Previous Version | Text Only | Print | Product List | Glossary Off
Versions: 1 2 3 4 5 6 7 8 9 10 11 12 13 14 15 16 17

000
FTUS43 KPAH 261120
TAFPAH
TAF
KPAH 261120Z 2612/2712 VRB03KT P6SM SCT120 BKN250
     FM261500 15007KT P6SM SCT060 BKN120
     FM261800 18009KT P6SM SCT060 BKN120
     FM270000 16005KT P6SM SCT030 BKN060
     FM270300 15004KT P6SM VCSH SCT010 BKN030
     FM270700 14006KT 3SM -RA BR OVC010=

USA.gov is the U.S. government's official web portal to all federal, state and local government web resources and services.